Time;durP1;ratioP1;P1;durP2;ratioP2;P2;SDS_P1;SDS_P2;PMS_P1;PMS_P2;Temp;Humidity;BMP_temperature;BMP_pressure;BME280_temperature;BME280_humidity;BME280_pressure;Samples;Min_cycle;Max_cycle;Signal;HPM_P1;HPM_P2
2022/09/08 00:00:14;;;;;;;6.1;3.7;;;;;;;;;;;;;
2022/09/08 00:02:39;;;;;;;3.3;2.8;;;;;;;;;;;;;
2022/09/08 00:05:07;;;;;;;3.8;2.3;;;;;;;;;;;;;
2022/09/08 00:07:32;;;;;;;2.6;2.3;;;;;;;;;;;;;
2022/09/08 00:09:57;;;;;;;4.1;3.1;;;;;;;;;;;;;
2022/09/08 00:12:24;;;;;;;2.6;2.4;;;;;;;;;;;;;
2022/09/08 00:14:48;;;;;;;3;2.5;;;;;;;;;;;;;
2022/09/08 00:17:14;;;;;;;2.6;2.4;;;;;;;;;;;;;
2022/09/08 00:19:39;;;;;;;3.3;2.4;;;;;;;;;;;;;
2022/09/08 00:22:04;;;;;;;4.4;2.7;;;;;;;;;;;;;
2022/09/08 00:24:30;;;;;;;3.2;2.8;;;;;;;;;;;;;
2022/09/08 00:26:56;;;;;;;3.1;2.5;;;;;;;;;;;;;
2022/09/08 00:29:21;;;;;;;3.1;2.7;;;;;;;;;;;;;
2022/09/08 00:31:53;;;;;;;4.1;2.8;;;;;;;;;;;;;
2022/09/08 00:34:18;;;;;;;3;2.6;;;;;;;;;;;;;
2022/09/08 00:36:43;;;;;;;6.1;3.1;;;;;;;;;;;;;
2022/09/08 00:39:11;;;;;;;3.5;2.3;;;;;;;;;;;;;
2022/09/08 00:41:36;;;;;;;2.7;2.5;;;;;;;;;;;;;
2022/09/08 00:44:02;;;;;;;5.5;3.1;;;;;;;;;;;;;
2022/09/08 00:46:26;;;;;;;4.2;2.4;;;;;;;;;;;;;
2022/09/08 00:48:52;;;;;;;3.6;2.8;;;;;;;;;;;;;
2022/09/08 00:51:18;;;;;;;4;3.2;;;;;;;;;;;;;
2022/09/08 00:53:41;;;;;;;3.5;2.7;;;;;;;;;;;;;
2022/09/08 00:56:07;;;;;;;3.5;2.7;;;;;;;;;;;;;
2022/09/08 00:58:32;;;;;;;4.4;2.5;;;;;;;;;;;;;
2022/09/08 01:01:05;;;;;;;4.6;2.7;;;;;;;;;;;;;
2022/09/08 01:03:31;;;;;;;2.7;2.5;;;;;;;;;;;;;
2022/09/08 01:06:00;;;;;;;3.9;2.9;;;;;;;;;;;;;
2022/09/08 01:13:20;;;;;;;3.1;2.7;;;;;;;;;;;;;
2022/09/08 01:15:44;;;;;;;4.2;3.1;;;;;;;;;;;;;
2022/09/08 01:18:09;;;;;;;4.5;2.8;;;;;;;;;;;;;
2022/09/08 01:20:35;;;;;;;4.3;3;;;;;;;;;;;;;
2022/09/08 01:23:00;;;;;;;3.2;2.9;;;;;;;;;;;;;
2022/09/08 01:25:28;;;;;;;4.4;3.1;;;;;;;;;;;;;
2022/09/08 01:27:51;;;;;;;5.4;2.9;;;;;;;;;;;;;
2022/09/08 01:30:18;;;;;;;5.9;3.4;;;;;;;;;;;;;
2022/09/08 01:32:44;;;;;;;3.7;3;;;;;;;;;;;;;
2022/09/08 01:35:16;;;;;;;4.5;2.7;;;;;;;;;;;;;
2022/09/08 01:37:40;;;;;;;3.7;2.9;;;;;;;;;;;;;
2022/09/08 01:40:06;;;;;;;4.2;3;;;;;;;;;;;;;
2022/09/08 01:42:31;;;;;;;3.6;3;;;;;;;;;;;;;
2022/09/08 01:44:56;;;;;;;3.8;3;;;;;;;;;;;;;
2022/09/08 01:47:21;;;;;;;4;2.8;;;;;;;;;;;;;
2022/09/08 01:49:46;;;;;;;3.6;2.9;;;;;;;;;;;;;
2022/09/08 01:52:11;;;;;;;4.7;3;;;;;;;;;;;;;
2022/09/08 01:54:36;;;;;;;3.5;2.8;;;;;;;;;;;;;
2022/09/08 01:57:02;;;;;;;4.4;2.9;;;;;;;;;;;;;
2022/09/08 01:59:28;;;;;;;4.8;3.3;;;;;;;;;;;;;
2022/09/08 02:01:53;;;;;;;3.9;3.5;;;;;;;;;;;;;
2022/09/08 02:04:19;;;;;;;3.9;3.1;;;;;;;;;;;;;
2022/09/08 02:06:45;;;;;;;5.2;3.6;;;;;;;;;;;;;
2022/09/08 02:11:37;;;;;;;3.6;3.2;;;;;;;;;;;;;
2022/09/08 02:14:03;;;;;;;5.1;3.3;;;;;;;;;;;;;
2022/09/08 02:16:27;;;;;;;3.4;3.1;;;;;;;;;;;;;
2022/09/08 02:18:52;;;;;;;5.9;3.4;;;;;;;;;;;;;
2022/09/08 02:21:17;;;;;;;5;3.3;;;;;;;;;;;;;
2022/09/08 02:23:44;;;;;;;4.7;3.3;;;;;;;;;;;;;
2022/09/08 02:26:09;;;;;;;4.9;2.8;;;;;;;;;;;;;
2022/09/08 02:28:35;;;;;;;3.8;2.8;;;;;;;;;;;;;
2022/09/08 02:33:25;;;;;;;3.1;2.8;;;;;;;;;;;;;
2022/09/08 02:35:52;;;;;;;4.6;2.7;;;;;;;;;;;;;
2022/09/08 02:38:17;;;;;;;3.2;2.9;;;;;;;;;;;;;
2022/09/08 02:40:43;;;;;;;3.6;2.9;;;;;;;;;;;;;
2022/09/08 02:43:09;;;;;;;4.5;3.1;;;;;;;;;;;;;
2022/09/08 02:45:33;;;;;;;4.4;3.2;;;;;;;;;;;;;
2022/09/08 02:47:59;;;;;;;5;3.7;;;;;;;;;;;;;
2022/09/08 02:50:24;;;;;;;4.8;3.2;;;;;;;;;;;;;
2022/09/08 02:52:50;;;;;;;5.5;3.4;;;;;;;;;;;;;
2022/09/08 02:55:15;;;;;;;4.4;3.6;;;;;;;;;;;;;
2022/09/08 02:57:41;;;;;;;5.8;3.3;;;;;;;;;;;;;
2022/09/08 03:00:06;;;;;;;3.9;3.1;;;;;;;;;;;;;
2022/09/08 03:02:34;;;;;;;4.3;3.4;;;;;;;;;;;;;
2022/09/08 03:04:59;;;;;;;4.9;3.6;;;;;;;;;;;;;
2022/09/08 03:07:25;;;;;;;4.6;3.3;;;;;;;;;;;;;
2022/09/08 03:09:51;;;;;;;5.2;3.2;;;;;;;;;;;;;
2022/09/08 03:12:16;;;;;;;4.6;3;;;;;;;;;;;;;
2022/09/08 03:14:41;;;;;;;5.4;3.3;;;;;;;;;;;;;
2022/09/08 03:17:08;;;;;;;5;3.1;;;;;;;;;;;;;
2022/09/08 03:19:35;;;;;;;2.6;2.4;;;;;;;;;;;;;
2022/09/08 03:24:26;;;;;;;2.6;2.3;;;;;;;;;;;;;
2022/09/08 03:26:52;;;;;;;3.9;2.4;;;;;;;;;;;;;
2022/09/08 03:29:17;;;;;;;3.5;2.8;;;;;;;;;;;;;
2022/09/08 03:31:43;;;;;;;3.7;2.7;;;;;;;;;;;;;
2022/09/08 03:34:08;;;;;;;2.9;2.5;;;;;;;;;;;;;
2022/09/08 03:36:37;;;;;;;2.7;2;;;;;;;;;;;;;
2022/09/08 03:39:01;;;;;;;5.2;2.3;;;;;;;;;;;;;
2022/09/08 03:41:29;;;;;;;2.6;1.9;;;;;;;;;;;;;
2022/09/08 03:43:54;;;;;;;1.7;1.6;;;;;;;;;;;;;
2022/09/08 03:46:19;;;;;;;2.7;1.7;;;;;;;;;;;;;
2022/09/08 03:48:44;;;;;;;3.4;2;;;;;;;;;;;;;
2022/09/08 03:51:22;;;;;;;2;1.8;;;;;;;;;;;;;
2022/09/08 03:53:47;;;;;;;2.1;1.9;;;;;;;;;;;;;
2022/09/08 03:56:13;;;;;;;2.6;2.4;;;;;;;;;;;;;
2022/09/08 03:58:39;;;;;;;2.8;2.1;;;;;;;;;;;;;
2022/09/08 04:02:37;;;;;;;4;1.9;;;;;;;17.66;91.77734;933.035;;;;
2022/09/08 04:05:10;;;;;;;1.9;1.5;;;;;;;17.68;90.87598;933.1636;;;;
2022/09/08 04:07:35;;;;;;;2.3;1.6;;;;;;;17.66;91.24609;933.0984;;;;
2022/09/08 04:10:01;;;;;;;1.8;1.6;;;;;;;17.57;91.21582;933.1801;;;;
2022/09/08 04:12:25;;;;;;;1.3;1.2;;;;;;;17.48;91.69336;933.2589;;;;
2022/09/08 04:14:54;;;;;;;1.3;1.2;;;;;;;17.39;91.75586;933.2377;;;;
2022/09/08 04:17:26;;;;;;;1.4;1.1;;;;;;;17.46;91.46973;933.3055;;;;
2022/09/08 04:19:55;;;;;;;1.7;1.3;;;;;;;17.46;91.51563;933.3616;;;;
2022/09/08 04:22:33;;;;;;;2.6;1.3;;;;;;;17.48;91.3916;933.3621;;;;
2022/09/08 04:25:22;;;;;;;1.5;1.4;;;;;;;17.47;91.66992;933.4813;;;;
2022/09/08 04:27:57;;;;;;;2;1.3;;;;;;;17.44;91.63965;933.4949;;;;
2022/09/08 04:30:28;;;;;;;1;1;;;;;;;17.37;91.05664;933.4724;;;;
2022/09/08 04:32:58;;;;;;;1.5;1.2;;;;;;;17.27;90.91016;933.4867;;;;
2022/09/08 04:35:25;;;;;;;3.1;1.6;;;;;;;17.31;91.27539;933.5382;;;;
2022/09/08 04:37:50;;;;;;;1.9;1.6;;;;;;;17.36;91.91309;933.5619;;;;
2022/09/08 04:40:19;;;;;;;1.6;1.5;;;;;;;17.38;92.57715;933.5261;;;;
2022/09/08 04:46:29;;;;;;;1.9;1.7;;;;;;;17.42;92.94434;933.5267;;;;
2022/09/08 04:49:01;;;;;;;2.7;1.6;;;;;;;17.42;92.67773;933.5203;;;;
2022/09/08 04:51:35;;;;;;;1.3;1.2;;;;;;;17.37;93.32715;933.5762;;;;
2022/09/08 04:54:05;;;;;;;1.4;1.3;;;;;;;17.39;92.69531;933.66;;;;
2022/09/08 04:56:34;;;;;;;1.4;1.2;;;;;;;17.4;92.14258;933.5761;;;;
2022/09/08 04:58:59;;;;;;;2.6;1.7;;;;;;;17.38;92.21973;933.6354;;;;
2022/09/08 05:01:28;;;;;;;2.5;1.4;;;;;;;17.4;92.79004;933.6454;;;;
2022/09/08 05:04:01;;;;;;;1.4;1.3;;;;;;;17.41;91.86426;933.675;;;;
2022/09/08 05:06:25;;;;;;;1.4;1.3;;;;;;;17.39;91.76758;933.6311;;;;
2022/09/08 05:08:55;;;;;;;1.6;1.5;;;;;;;17.41;92.50391;933.6275;;;;
2022/09/08 05:11:23;;;;;;;2;1.6;;;;;;;17.38;92.46191;933.662;;;;
2022/09/08 05:13:49;;;;;;;2;1.6;;;;;;;17.31;92.43457;933.7063;;;;
2022/09/08 05:16:20;;;;;;;3.1;1.5;;;;;;;17.37;91.92578;933.7104;;;;
2022/09/08 05:18:51;;;;;;;4.2;1.8;;;;;;;17.36;91.80859;933.7573;;;;
2022/09/08 05:21:16;;;;;;;1.8;1.7;;;;;;;17.41;91.64355;933.7877;;;;
2022/09/08 05:23:45;;;;;;;3.6;2.1;;;;;;;17.42;92.62012;933.8223;;;;
2022/09/08 05:26:10;;;;;;;2.2;2;;;;;;;17.44;92.61426;933.9031;;;;
2022/09/08 05:28:36;;;;;;;4;2.1;;;;;;;17.48;92.69336;933.9222;;;;
2022/09/08 05:31:01;;;;;;;2.7;2.3;;;;;;;17.56;92.62891;933.8904;;;;
2022/09/08 05:33:26;;;;;;;2.9;2.3;;;;;;;17.53;93.45703;933.8792;;;;
2022/09/08 05:35:54;;;;;;;2.9;2.1;;;;;;;17.59;93.49121;933.8045;;;;
2022/09/08 05:38:19;;;;;;;3.2;2.3;;;;;;;17.53;93.25781;933.8084;;;;
2022/09/08 05:40:45;;;;;;;2.1;1.9;;;;;;;17.54;93.42383;933.8442;;;;
2022/09/08 06:01:01;;;;;;;3.1;2.3;;;;;;;17.27;94.62793;934.0397;;;;
2022/09/08 06:03:30;;;;;;;4.5;2.2;;;;;;;17.32;94.75781;934.0906;;;;
2022/09/08 06:06:01;;;;;;;3.4;1.9;;;;;;;17.36;94.40625;934.1092;;;;
2022/09/08 06:09:12;;;;;;;2.7;2.2;;;;;;;17.37;95.03418;934.1548;;;;
2022/09/08 06:11:36;;;;;;;3.2;2.3;;;;;;;17.42;94.52441;934.2842;;;;
2022/09/08 06:14:05;;;;;;;3.5;2.4;;;;;;;17.51;94.8916;934.3136;;;;
2022/09/08 06:16:29;;;;;;;4.1;2.5;;;;;;;17.56;94.9707;934.2875;;;;
2022/09/08 06:18:58;;;;;;;2.6;2.2;;;;;;;17.23;96.00195;934.3084;;;;
2022/09/08 06:21:24;;;;;;;5;2.4;;;;;;;17.17;97.42578;934.3232;;;;
2022/09/08 06:23:53;;;;;;;5.1;2.6;;;;;;;17.07;97.99512;934.3045;;;;
2022/09/08 06:26:17;;;;;;;2.6;2.1;;;;;;;17.02;98.3418;934.3579;;;;
2022/09/08 06:28:47;;;;;;;2.3;1.8;;;;;;;16.96;98.23535;934.3992;;;;
2022/09/08 06:31:12;;;;;;;2.7;2.2;;;;;;;17.01;98.35156;934.435;;;;
2022/09/08 06:33:40;;;;;;;2.7;2.2;;;;;;;17.09;98.57813;934.5269;;;;
2022/09/08 06:36:03;;;;;;;2.6;2;;;;;;;17.03;98.4834;934.5193;;;;
2022/09/08 06:38:28;;;;;;;3.8;2.1;;;;;;;17.12;98.14648;934.5206;;;;
2022/09/08 06:40:59;;;;;;;3.7;2.3;;;;;;;17.12;98.35449;934.5424;;;;
2022/09/08 06:43:27;;;;;;;3.7;2.1;;;;;;;17.14;98.55371;934.6016;;;;
2022/09/08 06:45:51;;;;;;;3.3;2.1;;;;;;;17.22;98.40039;934.5742;;;;
2022/09/08 06:48:16;;;;;;;3.3;2.3;;;;;;;17.28;98.35449;934.6028;;;;
2022/09/08 06:50:41;;;;;;;4.1;2;;;;;;;17.32;97.50488;934.6235;;;;
2022/09/08 06:53:07;;;;;;;2.8;2.2;;;;;;;17.4;97.16309;934.6548;;;;
2022/09/08 06:55:32;;;;;;;2.1;1.9;;;;;;;17.43;96.0459;934.6414;;;;
2022/09/08 06:57:57;;;;;;;3.5;2.4;;;;;;;17.51;96.37695;934.6453;;;;
2022/09/08 07:00:28;;;;;;;3.1;2.3;;;;;;;17.55;96.12891;934.5895;;;;
2022/09/08 07:02:52;;;;;;;2.9;2.3;;;;;;;17.64;95.51074;934.6522;;;;
2022/09/08 07:05:19;;;;;;;2.3;2;;;;;;;17.54;95.47754;934.6172;;;;
2022/09/08 07:07:48;;;;;;;3.1;1.9;;;;;;;17.47;95.85645;934.6769;;;;
2022/09/08 07:10:13;;;;;;;2.6;2.2;;;;;;;17.28;97.26465;934.6478;;;;
2022/09/08 07:12:38;;;;;;;2.8;1.8;;;;;;;17.34;96.74512;934.6536;;;;
2022/09/08 07:15:04;;;;;;;2.2;1.2;;;;;;;17.45;93.79883;934.6516;;;;
2022/09/08 07:17:31;;;;;;;1.6;1;;;;;;;17.61;91.80273;934.6582;;;;
2022/09/08 07:20:04;;;;;;;3.5;1.3;;;;;;;17.67;90.25879;934.7168;;;;
2022/09/08 07:22:27;;;;;;;2.3;1.4;;;;;;;17.87;89.68457;934.7037;;;;
2022/09/08 07:24:54;;;;;;;1.3;1;;;;;;;18.05;90.24609;934.6713;;;;
2022/09/08 07:27:21;;;;;;;1.3;1.2;;;;;;;17.97;90.22949;934.7294;;;;
2022/09/08 07:29:47;;;;;;;1.6;1.1;;;;;;;17.99;89.94238;934.7498;;;;
2022/09/08 07:32:12;;;;;;;1.5;1.3;;;;;;;18.12;90.50488;934.8056;;;;
2022/09/08 07:34:37;;;;;;;2;1.3;;;;;;;18.16;91.68359;934.8516;;;;
2022/09/08 07:37:04;;;;;;;2.1;1.4;;;;;;;18.16;90.67285;934.7855;;;;
2022/09/08 07:39:32;;;;;;;2.3;1.7;;;;;;;18.09;90.61328;934.8226;;;;
2022/09/08 07:42:02;;;;;;;2.1;1.8;;;;;;;18.08;91.59766;934.8568;;;;
2022/09/08 07:44:25;;;;;;;2.1;1.9;;;;;;;18.02;91.62109;934.8437;;;;
2022/09/08 07:46:54;;;;;;;2.1;1.9;;;;;;;18.09;91.3457;934.9095;;;;
2022/09/08 07:49:19;;;;;;;4.4;2.4;;;;;;;17.98;92.20605;934.8145;;;;
2022/09/08 07:51:44;;;;;;;3;2.3;;;;;;;18.02;92.37598;934.7967;;;;
2022/09/08 07:54:09;;;;;;;1.9;1.7;;;;;;;17.85;92.89746;934.8837;;;;
2022/09/08 07:56:41;;;;;;;2.5;1.8;;;;;;;17.91;93.32813;934.9524;;;;
2022/09/08 07:59:06;;;;;;;3.7;2.1;;;;;;;17.93;92.15918;934.9094;;;;
2022/09/08 08:01:32;;;;;;;2.3;1.8;;;;;;;17.85;93.07324;935.0198;;;;
2022/09/08 08:04:01;;;;;;;2.6;1.7;;;;;;;17.89;92.64941;935.073;;;;
2022/09/08 08:06:26;;;;;;;2.2;1.8;;;;;;;17.93;92.08984;935.1501;;;;
2022/09/08 08:08:51;;;;;;;1.7;1.6;;;;;;;17.96;91.85156;935.2253;;;;
2022/09/08 08:11:20;;;;;;;2.6;1.7;;;;;;;17.86;91.60059;935.2048;;;;
2022/09/08 08:13:45;;;;;;;3.5;1.5;;;;;;;17.7;92.69043;935.2913;;;;
2022/09/08 08:16:13;;;;;;;1.9;1.6;;;;;;;17.74;92.78125;935.3258;;;;
2022/09/08 08:18:39;;;;;;;3.1;1.6;;;;;;;17.89;93.30176;935.3677;;;;
2022/09/08 08:21:03;;;;;;;2.6;1.8;;;;;;;17.86;92.80566;935.2897;;;;
2022/09/08 08:23:30;;;;;;;2.6;1.3;;;;;;;17.85;89.00977;935.2759;;;;
2022/09/08 08:25:56;;;;;;;2.9;1;;;;;;;17.86;88.19629;935.3058;;;;
2022/09/08 08:28:21;;;;;;;1;0.7;;;;;;;17.93;88.78027;935.2525;;;;
2022/09/08 08:30:46;;;;;;;0.9;0.6;;;;;;;18.05;87.71191;935.2644;;;;
2022/09/08 08:33:11;;;;;;;1.5;0.4;;;;;;;18.12;85.69336;935.212;;;;
2022/09/08 08:35:39;;;;;;;0.3;0.3;;;;;;;18.24;83.04492;935.1301;;;;
2022/09/08 08:38:04;;;;;;;0.3;0.2;;;;;;;18.41;81.78516;935.1339;;;;
2022/09/08 08:40:29;;;;;;;0.7;0.3;;;;;;;18.52;82.44629;935.1225;;;;
2022/09/08 08:42:58;;;;;;;1;0.4;;;;;;;18.67;82.20605;935.0966;;;;
2022/09/08 08:45:24;;;;;;;0.5;0.4;;;;;;;18.64;82.45508;935.1273;;;;
2022/09/08 08:47:48;;;;;;;1.4;0.4;;;;;;;18.67;81.89355;935.0368;;;;
2022/09/08 08:50:18;;;;;;;0.7;0.5;;;;;;;18.41;80.77344;935.0203;;;;
2022/09/08 08:52:47;;;;;;;0.8;0.5;;;;;;;18.6;80.19336;934.9261;;;;
2022/09/08 08:55:13;;;;;;;0.4;0.4;;;;;;;18.68;83.8125;935.0375;;;;
2022/09/08 08:57:39;;;;;;;1.8;0.5;;;;;;;18.83;82.66699;934.9989;;;;
2022/09/08 09:00:08;;;;;;;0.9;0.4;;;;;;;18.83;83.14355;935.0103;;;;
2022/09/08 09:02:39;;;;;;;0.8;0.3;;;;;;;18.68;82.3125;935.0295;;;;
2022/09/08 09:05:09;;;;;;;0.7;0.7;;;;;;;18.63;84.75781;935.1145;;;;
2022/09/08 09:07:35;;;;;;;0.6;0.5;;;;;;;18.57;86.02539;935.0834;;;;
2022/09/08 09:10:02;;;;;;;1.8;0.5;;;;;;;;;;;;;
2022/09/08 09:12:27;;;;;;;1.2;0.7;;;;;;;;;;;;;
2022/09/08 09:14:53;;;;;;;1.6;0.7;;;;;;;;;;;;;
2022/09/08 09:17:18;;;;;;;1.7;0.7;;;;;;;;;;;;;
2022/09/08 09:19:45;;;;;;;1;0.6;;;;;;;;;;;;;
2022/09/08 09:22:10;;;;;;;2.5;0.7;;;;;;;;;;;;;
2022/09/08 09:24:36;;;;;;;0.4;0.4;;;;;;;;;;;;;
2022/09/08 09:27:00;;;;;;;0.3;0.3;;;;;;;;;;;;;
2022/09/08 09:29:27;;;;;;;0.8;0.8;;;;;;;;;;;;;
2022/09/08 09:31:53;;;;;;;0.6;0.5;;;;;;;;;;;;;
2022/09/08 09:34:17;;;;;;;0.5;0.2;;;;;;;;;;;;;
2022/09/08 09:36:44;;;;;;;2.3;0.4;;;;;;;;;;;;;
2022/09/08 09:39:09;;;;;;;1.3;0.4;;;;;;;;;;;;;
2022/09/08 09:41:34;;;;;;;0.3;0.3;;;;;;;;;;;;;
2022/09/08 09:43:59;;;;;;;1.3;0.4;;;;;;;;;;;;;
2022/09/08 09:46:25;;;;;;;0.9;0.5;;;;;;;;;;;;;
2022/09/08 09:48:50;;;;;;;0.4;0.3;;;;;;;;;;;;;
2022/09/08 09:51:15;;;;;;;1.2;0.2;;;;;;;;;;;;;
2022/09/08 09:53:40;;;;;;;0.3;0.3;;;;;;;;;;;;;
2022/09/08 09:56:05;;;;;;;0.3;0.3;;;;;;;;;;;;;
2022/09/08 09:58:30;;;;;;;0.5;0.4;;;;;;;;;;;;;
2022/09/08 10:00:56;;;;;;;0.5;0.3;;;;;;;;;;;;;
2022/09/08 10:03:23;;;;;;;1.2;0.5;;;;;;;;;;;;;
2022/09/08 10:05:48;;;;;;;0.4;0.4;;;;;;;;;;;;;
2022/09/08 10:08:13;;;;;;;0.2;0.2;;;;;;;;;;;;;
2022/09/08 10:10:38;;;;;;;0.3;0.2;;;;;;;;;;;;;
2022/09/08 10:13:04;;;;;;;0.2;0.2;;;;;;;;;;;;;
2022/09/08 10:15:30;;;;;;;0.8;0.3;;;;;;;;;;;;;
2022/09/08 10:17:54;;;;;;;0.5;0.2;;;;;;;;;;;;;
2022/09/08 10:20:19;;;;;;;0.2;0.2;;;;;;;;;;;;;
2022/09/08 10:22:45;;;;;;;0.3;0.3;;;;;;;;;;;;;
2022/09/08 10:25:13;;;;;;;1.2;0.4;;;;;;;;;;;;;
2022/09/08 10:27:38;;;;;;;0.7;0.5;;;;;;;;;;;;;
2022/09/08 10:30:03;;;;;;;0.7;0.3;;;;;;;;;;;;;
2022/09/08 10:32:28;;;;;;;1.1;0.6;;;;;;;;;;;;;
2022/09/08 10:34:54;;;;;;;0.5;0.3;;;;;;;;;;;;;
2022/09/08 10:37:19;;;;;;;1.1;0.4;;;;;;;;;;;;;
2022/09/08 10:39:45;;;;;;;0.5;0.4;;;;;;;;;;;;;
2022/09/08 10:42:09;;;;;;;1;0.6;;;;;;;;;;;;;
2022/09/08 10:44:34;;;;;;;0.5;0.5;;;;;;;;;;;;;
2022/09/08 10:46:59;;;;;;;1.5;0.7;;;;;;;;;;;;;
2022/09/08 10:49:24;;;;;;;0.7;0.5;;;;;;;;;;;;;
2022/09/08 10:51:50;;;;;;;0.4;0.4;;;;;;;;;;;;;
2022/09/08 10:54:16;;;;;;;0.5;0.3;;;;;;;;;;;;;
2022/09/08 10:56:40;;;;;;;0.5;0.5;;;;;;;;;;;;;
2022/09/08 10:59:06;;;;;;;0.9;0.5;;;;;;;;;;;;;
2022/09/08 11:01:31;;;;;;;0.4;0.4;;;;;;;;;;;;;
2022/09/08 11:03:56;;;;;;;0.3;0.3;;;;;;;;;;;;;
2022/09/08 11:06:23;;;;;;;1;0.3;;;;;;;;;;;;;
2022/09/08 11:08:48;;;;;;;1.7;0.6;;;;;;;;;;;;;
2022/09/08 11:11:13;;;;;;;0.9;0.5;;;;;;;;;;;;;
2022/09/08 11:13:39;;;;;;;0.2;0.2;;;;;;;;;;;;;
2022/09/08 11:16:04;;;;;;;1.6;0.5;;;;;;;;;;;;;
2022/09/08 11:18:29;;;;;;;0.3;0.3;;;;;;;;;;;;;
2022/09/08 11:20:54;;;;;;;2;0.4;;;;;;;;;;;;;
2022/09/08 11:23:19;;;;;;;1.4;0.4;;;;;;;;;;;;;
2022/09/08 11:25:45;;;;;;;0.5;0.3;;;;;;;;;;;;;
2022/09/08 11:28:10;;;;;;;0.4;0.4;;;;;;;;;;;;;
2022/09/08 11:30:35;;;;;;;1;0.4;;;;;;;;;;;;;
2022/09/08 11:33:00;;;;;;;0.9;0.5;;;;;;;;;;;;;
2022/09/08 11:35:25;;;;;;;0.3;0.3;;;;;;;;;;;;;
2022/09/08 11:37:51;;;;;;;0.7;0.3;;;;;;;;;;;;;
2022/09/08 11:40:16;;;;;;;0.3;0.3;;;;;;;;;;;;;
2022/09/08 11:42:42;;;;;;;0.9;0.2;;;;;;;;;;;;;
2022/09/08 11:45:13;;;;;;;0.5;0.2;;;;;;;;;;;;;
2022/09/08 11:47:37;;;;;;;0.1;0.1;;;;;;;;;;;;;
2022/09/08 11:50:04;;;;;;;0.5;0.2;;;;;;;;;;;;;
2022/09/08 11:52:29;;;;;;;0.2;0.2;;;;;;;;;;;;;
2022/09/08 11:54:54;;;;;;;0.2;0.2;;;;;;;;;;;;;
2022/09/08 11:57:22;;;;;;;0.3;0.3;;;;;;;;;;;;;
2022/09/08 11:59:49;;;;;;;0.2;0.2;;;;;;;;;;;;;
2022/09/08 12:02:14;;;;;;;0.4;0.3;;;;;;;;;;;;;
2022/09/08 12:04:39;;;;;;;0.2;0.2;;;;;;;;;;;;;
2022/09/08 12:07:06;;;;;;;0.2;0.2;;;;;;;;;;;;;
2022/09/08 12:09:31;;;;;;;0.5;0.3;;;;;;;;;;;;;
2022/09/08 12:11:56;;;;;;;0.5;0.3;;;;;;;;;;;;;
2022/09/08 12:14:21;;;;;;;0.2;0.2;;;;;;;;;;;;;
2022/09/08 12:16:47;;;;;;;0.5;0.2;;;;;;;;;;;;;
2022/09/08 12:19:13;;;;;;;0.3;0.3;;;;;;;;;;;;;
2022/09/08 12:21:39;;;;;;;0.2;0.2;;;;;;;;;;;;;
2022/09/08 12:24:04;;;;;;;0.6;0.4;;;;;;;;;;;;;
2022/09/08 12:26:29;;;;;;;0.3;0.2;;;;;;;;;;;;;
2022/09/08 12:28:55;;;;;;;0.2;0.2;;;;;;;;;;;;;
2022/09/08 12:31:20;;;;;;;0.1;0.1;;;;;;;;;;;;;
2022/09/08 12:33:46;;;;;;;0.4;0.3;;;;;;;;;;;;;
2022/09/08 12:36:12;;;;;;;0.4;0.4;;;;;;;;;;;;;
2022/09/08 12:38:36;;;;;;;0.4;0.3;;;;;;;;;;;;;
2022/09/08 12:41:01;;;;;;;0.4;0.4;;;;;;;;;;;;;
2022/09/08 12:43:27;;;;;;;0.6;0.5;;;;;;;;;;;;;
2022/09/08 12:45:52;;;;;;;0.9;0.3;;;;;;;;;;;;;
2022/09/08 12:48:17;;;;;;;0.5;0.4;;;;;;;;;;;;;
2022/09/08 12:50:43;;;;;;;1;0.5;;;;;;;;;;;;;
2022/09/08 12:53:08;;;;;;;0.6;0.2;;;;;;;;;;;;;
2022/09/08 12:55:33;;;;;;;0.2;0.2;;;;;;;;;;;;;
2022/09/08 12:58:00;;;;;;;0.7;0.2;;;;;;;;;;;;;
2022/09/08 13:00:26;;;;;;;0.2;0.2;;;;;;;;;;;;;
2022/09/08 13:02:48;;;;;;;0.1;0.1;;;;;;;;;;;;;
2022/09/08 13:05:19;;;;;;;0.2;0.2;;;;;;;;;;;;;
2022/09/08 13:07:44;;;;;;;0.2;0.2;;;;;;;;;;;;;
2022/09/08 13:10:09;;;;;;;0.4;0.3;;;;;;;;;;;;;
2022/09/08 13:12:35;;;;;;;1.7;0.3;;;;;;;;;;;;;
2022/09/08 13:15:01;;;;;;;0.4;0.4;;;;;;;;;;;;;
2022/09/08 13:17:27;;;;;;;0.2;0.2;;;;;;;;;;;;;
2022/09/08 13:19:51;;;;;;;0.1;0.1;;;;;;;;;;;;;
2022/09/08 13:22:16;;;;;;;0.2;0.2;;;;;;;;;;;;;
2022/09/08 13:24:42;;;;;;;0.3;0.2;;;;;;;;;;;;;
2022/09/08 13:27:07;;;;;;;0.3;0.3;;;;;;;;;;;;;
2022/09/08 13:29:33;;;;;;;0.9;0.3;;;;;;;;;;;;;
2022/09/08 13:31:58;;;;;;;0.2;0.2;;;;;;;;;;;;;
2022/09/08 13:34:23;;;;;;;0.2;0.2;;;;;;;;;;;;;
2022/09/08 13:36:49;;;;;;;0.2;0.1;;;;;;;;;;;;;
2022/09/08 13:39:18;;;;;;;0.9;0.2;;;;;;;;;;;;;
2022/09/08 13:41:42;;;;;;;1;0.4;;;;;;;;;;;;;
2022/09/08 13:44:08;;;;;;;1.2;0.3;;;;;;;;;;;;;
2022/09/08 13:46:33;;;;;;;0.3;0.3;;;;;;;;;;;;;
2022/09/08 13:48:58;;;;;;;0.4;0.3;;;;;;;;;;;;;
2022/09/08 13:51:23;;;;;;;0.1;0.1;;;;;;;;;;;;;
2022/09/08 13:53:49;;;;;;;1.1;0.3;;;;;;;;;;;;;
2022/09/08 13:56:28;;;;;;;0.3;0.3;;;;;;;;;;;;;
2022/09/08 13:58:53;;;;;;;0.2;0.2;;;;;;;;;;;;;
2022/09/08 14:01:18;;;;;;;0.4;0.4;;;;;;;;;;;;;
2022/09/08 14:03:44;;;;;;;0.3;0.3;;;;;;;;;;;;;
2022/09/08 14:06:08;;;;;;;0.6;0.4;;;;;;;;;;;;;
2022/09/08 14:08:33;;;;;;;0.2;0.2;;;;;;;;;;;;;
2022/09/08 14:10:59;;;;;;;0.3;0.3;;;;;;;;;;;;;
2022/09/08 14:13:24;;;;;;;0.4;0.4;;;;;;;;;;;;;
2022/09/08 14:15:49;;;;;;;0.4;0.4;;;;;;;;;;;;;
2022/09/08 14:18:14;;;;;;;0.4;0.4;;;;;;;;;;;;;
2022/09/08 14:20:42;;;;;;;0.4;0.4;;;;;;;;;;;;;
2022/09/08 14:23:07;;;;;;;0.4;0.4;;;;;;;;;;;;;
2022/09/08 14:25:32;;;;;;;0.4;0.4;;;;;;;;;;;;;
2022/09/08 14:27:57;;;;;;;1.3;0.5;;;;;;;;;;;;;
2022/09/08 14:30:24;;;;;;;0.4;0.4;;;;;;;;;;;;;
2022/09/08 14:32:49;;;;;;;1.1;0.5;;;;;;;;;;;;;
2022/09/08 14:35:16;;;;;;;1.4;0.4;;;;;;;;;;;;;
2022/09/08 14:37:41;;;;;;;0.6;0.4;;;;;;;;;;;;;
2022/09/08 14:40:06;;;;;;;0.4;0.4;;;;;;;;;;;;;
2022/09/08 14:42:33;;;;;;;1.1;0.3;;;;;;;;;;;;;
2022/09/08 14:44:58;;;;;;;0.5;0.3;;;;;;;;;;;;;
2022/09/08 14:47:24;;;;;;;1.1;0.4;;;;;;;;;;;;;
2022/09/08 14:49:49;;;;;;;0.6;0.4;;;;;;;;;;;;;
2022/09/08 14:52:15;;;;;;;0.6;0.4;;;;;;;;;;;;;
2022/09/08 14:54:43;;;;;;;0.4;0.4;;;;;;;;;;;;;
2022/09/08 14:57:07;;;;;;;0.4;0.4;;;;;;;;;;;;;
2022/09/08 14:59:32;;;;;;;1.7;0.5;;;;;;;;;;;;;
2022/09/08 15:01:57;;;;;;;0.7;0.7;;;;;;;;;;;;;
2022/09/08 15:04:22;;;;;;;0.6;0.6;;;;;;;;;;;;;
2022/09/08 15:06:49;;;;;;;2.3;0.7;;;;;;;;;;;;;
2022/09/08 15:09:12;;;;;;;1.3;0.5;;;;;;;;;;;;;
2022/09/08 15:11:37;;;;;;;0.6;0.6;;;;;;;;;;;;;
2022/09/08 15:14:02;;;;;;;0.6;0.3;;;;;;;;;;;;;
2022/09/08 15:16:28;;;;;;;1;0.5;;;;;;;;;;;;;
2022/09/08 15:18:56;;;;;;;0.4;0.4;;;;;;;;;;;;;
2022/09/08 15:21:23;;;;;;;0.8;0.7;;;;;;;;;;;;;
2022/09/08 15:23:49;;;;;;;0.5;0.5;;;;;;;;;;;;;
2022/09/08 15:26:14;;;;;;;2.1;0.5;;;;;;;;;;;;;
2022/09/08 15:28:38;;;;;;;0.8;0.7;;;;;;;;;;;;;
2022/09/08 15:31:03;;;;;;;0.6;0.6;;;;;;;;;;;;;
2022/09/08 15:33:30;;;;;;;1;0.7;;;;;;;;;;;;;
2022/09/08 15:35:57;;;;;;;1.2;0.6;;;;;;;;;;;;;
2022/09/08 15:38:20;;;;;;;1.2;0.6;;;;;;;;;;;;;
2022/09/08 15:40:49;;;;;;;0.8;0.6;;;;;;;;;;;;;
2022/09/08 15:43:16;;;;;;;2;0.5;;;;;;;;;;;;;
2022/09/08 15:45:40;;;;;;;0.7;0.4;;;;;;;;;;;;;
2022/09/08 15:48:05;;;;;;;1.4;0.6;;;;;;;;;;;;;
2022/09/08 15:50:33;;;;;;;0.9;0.5;;;;;;;;;;;;;
2022/09/08 15:52:57;;;;;;;1.6;0.8;;;;;;;;;;;;;
2022/09/08 15:55:23;;;;;;;2;0.7;;;;;;;;;;;;;
2022/09/08 15:57:49;;;;;;;1;0.6;;;;;;;;;;;;;
2022/09/08 16:00:16;;;;;;;1.3;0.6;;;;;;;;;;;;;
2022/09/08 16:02:41;;;;;;;1;0.5;;;;;;;;;;;;;
2022/09/08 16:05:11;;;;;;;1.2;0.6;;;;;;;;;;;;;
2022/09/08 16:07:35;;;;;;;0.6;0.5;;;;;;;;;;;;;
2022/09/08 16:10:02;;;;;;;1.2;0.6;;;;;;;;;;;;;
2022/09/08 16:12:26;;;;;;;2;0.6;;;;;;;;;;;;;
2022/09/08 16:14:52;;;;;;;0.6;0.5;;;;;;;;;;;;;
2022/09/08 16:17:17;;;;;;;1.1;0.6;;;;;;;;;;;;;
2022/09/08 16:19:43;;;;;;;0.7;0.7;;;;;;;;;;;;;
2022/09/08 16:22:09;;;;;;;0.6;0.6;;;;;;;;;;;;;
2022/09/08 16:24:33;;;;;;;0.7;0.7;;;;;;;;;;;;;
2022/09/08 16:27:00;;;;;;;1.5;0.7;;;;;;;;;;;;;
2022/09/08 16:29:24;;;;;;;1.7;0.8;;;;;;;;;;;;;
2022/09/08 16:31:49;;;;;;;1.7;0.6;;;;;;;;;;;;;
2022/09/08 16:34:14;;;;;;;1.5;0.8;;;;;;;;;;;;;
2022/09/08 16:36:40;;;;;;;1.6;0.8;;;;;;;;;;;;;
2022/09/08 16:39:04;;;;;;;1.1;0.6;;;;;;;;;;;;;
2022/09/08 16:41:35;;;;;;;1.3;0.9;;;;;;;;;;;;;
2022/09/08 16:43:58;;;;;;;1.3;0.8;;;;;;;;;;;;;
2022/09/08 16:46:23;;;;;;;2.6;1;;;;;;;;;;;;;
2022/09/08 16:48:50;;;;;;;1.3;0.9;;;;;;;;;;;;;
2022/09/08 16:51:14;;;;;;;0.8;0.8;;;;;;;;;;;;;
2022/09/08 16:53:40;;;;;;;2.7;1;;;;;;;;;;;;;
2022/09/08 16:56:06;;;;;;;2.2;0.9;;;;;;;;;;;;;
2022/09/08 16:58:31;;;;;;;2;0.7;;;;;;;;;;;;;
2022/09/08 17:00:55;;;;;;;1.5;0.9;;;;;;;;;;;;;
2022/09/08 17:03:20;;;;;;;1.7;0.5;;;;;;;;;;;;;
2022/09/08 17:05:45;;;;;;;0.7;0.7;;;;;;;;;;;;;
2022/09/08 17:08:11;;;;;;;1.4;0.7;;;;;;;;;;;;;
2022/09/08 17:10:38;;;;;;;0.7;0.7;;;;;;;;;;;;;
2022/09/08 17:13:04;;;;;;;2.2;0.8;;;;;;;;;;;;;
2022/09/08 17:15:34;;;;;;;1.5;0.7;;;;;;;;;;;;;
2022/09/08 17:18:00;;;;;;;1.1;1;;;;;;;;;;;;;
2022/09/08 17:20:25;;;;;;;0.9;0.8;;;;;;;;;;;;;
2022/09/08 17:22:51;;;;;;;0.8;0.8;;;;;;;;;;;;;
2022/09/08 17:25:16;;;;;;;1.2;1;;;;;;;;;;;;;
2022/09/08 17:27:41;;;;;;;1.8;1;;;;;;;;;;;;;
2022/09/08 17:30:06;;;;;;;21.4;2.5;;;;;;;;;;;;;
2022/09/08 17:32:31;;;;;;;0.9;0.6;;;;;;;;;;;;;
2022/09/08 17:34:56;;;;;;;1.1;0.8;;;;;;;;;;;;;
2022/09/08 17:37:22;;;;;;;0.8;0.8;;;;;;;;;;;;;
2022/09/08 17:39:50;;;;;;;1.6;1;;;;;;;;;;;;;
2022/09/08 17:42:15;;;;;;;3;0.9;;;;;;;;;;;;;
2022/09/08 17:44:41;;;;;;;2.2;0.8;;;;;;;;;;;;;
2022/09/08 17:47:05;;;;;;;1.5;0.9;;;;;;;;;;;;;
2022/09/08 17:49:30;;;;;;;2.7;0.9;;;;;;;;;;;;;
2022/09/08 17:51:55;;;;;;;2.6;1.1;;;;;;;;;;;;;
2022/09/08 17:54:20;;;;;;;3.4;0.9;;;;;;;;;;;;;
2022/09/08 17:56:45;;;;;;;3.3;1.2;;;;;;;;;;;;;
2022/09/08 18:01:36;;;;;;;3.5;1.4;;;;;;;;;;;;;
2022/09/08 18:04:02;;;;;;;3;1.5;;;;;;;;;;;;;
2022/09/08 18:06:27;;;;;;;2.7;1.7;;;;;;;;;;;;;
2022/09/08 18:08:53;;;;;;;2.6;1.6;;;;;;;;;;;;;
2022/09/08 18:11:21;;;;;;;3;1.7;;;;;;;;;;;;;
2022/09/08 18:13:42;;;;;;;4.7;2.3;;;;;;;;;;;;;
2022/09/08 18:16:08;;;;;;;5.1;3.1;;;;;;;;;;;;;
2022/09/08 18:18:33;;;;;;;3.7;2.6;;;;;;;;;;;;;
2022/09/08 18:21:01;;;;;;;6.8;2.9;;;;;;;;;;;;;
2022/09/08 18:23:26;;;;;;;3.6;2.1;;;;;;;;;;;;;
2022/09/08 18:25:53;;;;;;;4;2.6;;;;;;;;;;;;;
2022/09/08 18:28:17;;;;;;;3.7;2.2;;;;;;;;;;;;;
2022/09/08 18:30:42;;;;;;;2.4;1.7;;;;;;;;;;;;;
2022/09/08 18:33:07;;;;;;;6;2.9;;;;;;;;;;;;;
2022/09/08 18:35:34;;;;;;;8.3;4.3;;;;;;;;;;;;;
2022/09/08 18:37:58;;;;;;;9.7;4.4;;;;;;;;;;;;;
2022/09/08 18:40:27;;;;;;;8.6;4.2;;;;;;;;;;;;;
2022/09/08 18:42:48;;;;;;;7.5;3.6;;;;;;;;;;;;;
2022/09/08 18:45:14;;;;;;;4.7;1.8;;;;;;;;;;;;;
2022/09/08 18:47:38;;;;;;;4.4;2.5;;;;;;;;;;;;;
2022/09/08 18:50:03;;;;;;;3.8;2.1;;;;;;;;;;;;;
2022/09/08 18:52:29;;;;;;;2.9;2;;;;;;;;;;;;;
2022/09/08 18:54:56;;;;;;;2.8;1.4;;;;;;;;;;;;;
2022/09/08 18:57:21;;;;;;;1.9;1.3;;;;;;;;;;;;;
2022/09/08 18:59:47;;;;;;;2.2;1.4;;;;;;;;;;;;;
2022/09/08 19:02:14;;;;;;;1.9;1.5;;;;;;;;;;;;;
2022/09/08 19:04:38;;;;;;;3.3;1.5;;;;;;;;;;;;;
2022/09/08 19:07:03;;;;;;;3.5;1.7;;;;;;;;;;;;;
2022/09/08 19:09:27;;;;;;;2.1;1.7;;;;;;;;;;;;;